createdAt,value
2024-01-12T00:00:12.961Z,4.50
2024-01-12T00:02:39.753Z,4.50
2024-01-12T00:05:06.459Z,4.40
2024-01-12T00:07:33.215Z,4.50
2024-01-12T00:09:59.916Z,4.50
2024-01-12T00:12:26.594Z,4.50
2024-01-12T00:14:53.290Z,4.50
2024-01-12T00:17:20.251Z,4.50
2024-01-12T00:19:47.309Z,4.50
2024-01-12T00:22:14.032Z,4.50
2024-01-12T00:24:40.684Z,4.50
2024-01-12T00:27:07.374Z,4.50
2024-01-12T00:29:34.087Z,4.50
2024-01-12T00:32:00.931Z,4.60
2024-01-12T00:34:27.633Z,4.60
2024-01-12T00:36:55.118Z,4.60
2024-01-12T00:39:21.913Z,4.60
2024-01-12T00:41:51.588Z,4.60
2024-01-12T00:44:23.242Z,4.60
2024-01-12T00:46:52.497Z,4.60
2024-01-12T00:49:19.639Z,4.70
2024-01-12T00:51:46.348Z,4.60
2024-01-12T00:54:13.012Z,4.60
2024-01-12T00:56:39.783Z,4.60
2024-01-12T00:59:06.495Z,4.60
2024-01-12T01:01:33.234Z,4.60
2024-01-12T01:03:59.954Z,4.60
2024-01-12T01:06:26.725Z,4.60
2024-01-12T01:08:53.776Z,4.70
2024-01-12T01:11:20.555Z,4.70
2024-01-12T01:13:47.296Z,4.70
2024-01-12T01:16:13.923Z,4.60
2024-01-12T01:18:40.778Z,4.60
2024-01-12T01:21:07.614Z,4.60
2024-01-12T01:23:34.374Z,4.60
2024-01-12T01:26:01.055Z,4.70
2024-01-12T01:28:27.769Z,4.60
2024-01-12T01:30:54.542Z,4.60
2024-01-12T01:33:21.463Z,4.60
2024-01-12T01:35:48.233Z,4.60
2024-01-12T01:38:14.900Z,4.60
2024-01-12T01:40:43.725Z,4.60
2024-01-12T01:43:10.438Z,4.60
2024-01-12T01:45:37.541Z,4.60
2024-01-12T01:48:04.413Z,4.50
2024-01-12T01:50:31.326Z,4.60
2024-01-12T01:52:58.041Z,4.60
2024-01-12T01:55:24.714Z,4.50
2024-01-12T01:57:51.387Z,4.60
2024-01-12T02:00:18.094Z,4.70
2024-01-12T02:02:44.990Z,4.70
2024-01-12T02:05:11.867Z,4.60
2024-01-12T02:07:38.562Z,4.60
2024-01-12T02:10:05.225Z,4.60
2024-01-12T02:12:31.890Z,4.60
2024-01-12T02:14:58.566Z,4.60
2024-01-12T02:17:25.348Z,4.60
2024-01-12T02:19:52.119Z,4.70
2024-01-12T02:22:19.048Z,4.70
2024-01-12T02:24:45.754Z,4.80
2024-01-12T02:27:12.380Z,4.80
2024-01-12T02:29:39.436Z,4.80
2024-01-12T02:32:06.174Z,4.70
2024-01-12T02:34:32.924Z,4.80
2024-01-12T02:36:59.525Z,4.70
2024-01-12T02:39:26.162Z,4.70
2024-01-12T02:41:52.989Z,4.70
2024-01-12T02:44:19.712Z,4.60
2024-01-12T02:46:46.362Z,4.60
2024-01-12T02:49:13.028Z,4.50
2024-01-12T02:51:39.686Z,4.50
2024-01-12T02:54:06.440Z,4.60
2024-01-12T02:56:33.224Z,4.60
2024-01-12T02:59:00.032Z,4.70
2024-01-12T03:01:26.846Z,4.70
2024-01-12T03:03:53.542Z,4.70
2024-01-12T03:06:20.423Z,4.70
2024-01-12T03:08:47.177Z,4.70
2024-01-12T03:11:13.865Z,4.70
2024-01-12T03:13:40.562Z,4.80
2024-01-12T03:16:07.251Z,4.80
2024-01-12T03:18:34.261Z,4.80
2024-01-12T03:21:01.230Z,4.70
2024-01-12T03:23:28.023Z,4.70
2024-01-12T03:25:54.722Z,4.80
2024-01-12T03:28:21.366Z,4.80
2024-01-12T03:30:48.066Z,4.80
2024-01-12T03:33:14.919Z,4.80
2024-01-12T03:35:42.416Z,4.80
2024-01-12T03:38:09.085Z,4.80
2024-01-12T03:40:35.820Z,4.80
2024-01-12T03:43:02.459Z,4.90
2024-01-12T03:45:29.152Z,4.90
2024-01-12T03:47:55.915Z,4.90
2024-01-12T03:50:23.025Z,4.80
2024-01-12T03:52:49.805Z,4.80
2024-01-12T03:55:16.436Z,4.80
2024-01-12T03:57:43.334Z,4.80
2024-01-12T04:00:10.198Z,4.80
2024-01-12T04:02:36.979Z,4.80
2024-01-12T04:05:04.801Z,4.80
2024-01-12T04:07:32.149Z,4.90
2024-01-12T04:09:58.803Z,4.90
2024-01-12T04:12:25.509Z,4.90
2024-01-12T04:14:52.178Z,4.80
2024-01-12T04:17:18.901Z,4.90
2024-01-12T04:19:45.838Z,4.90
2024-01-12T04:22:12.660Z,4.90
2024-01-12T04:24:39.337Z,4.90
2024-01-12T04:27:06.481Z,4.90
2024-01-12T04:29:33.349Z,4.90
2024-01-12T04:32:00.080Z,4.80
2024-01-12T04:34:26.864Z,4.80
2024-01-12T04:36:53.575Z,4.80
2024-01-12T04:39:20.244Z,4.90
2024-01-12T04:41:47.744Z,4.80
2024-01-12T04:44:14.503Z,4.80
2024-01-12T04:46:41.217Z,4.80
2024-01-12T04:49:08.224Z,4.90
2024-01-12T04:51:35.069Z,4.80
2024-01-12T04:54:01.785Z,4.90
2024-01-12T04:56:28.464Z,4.90
2024-01-12T04:58:55.139Z,4.90
2024-01-12T05:01:22.656Z,5.00
2024-01-12T05:03:49.406Z,5.00
2024-01-12T05:06:16.176Z,4.90
2024-01-12T05:08:42.876Z,5.00
2024-01-12T05:11:09.544Z,4.90
2024-01-12T05:13:36.294Z,4.90
2024-01-12T05:16:03.021Z,4.90
2024-01-12T05:18:29.856Z,4.90
2024-01-12T05:20:56.693Z,5.00
2024-01-12T05:23:23.350Z,5.00
2024-01-12T05:25:50.059Z,5.00
2024-01-12T05:28:16.783Z,5.00
2024-01-12T05:30:43.637Z,5.00
2024-01-12T05:33:10.491Z,4.90
2024-01-12T05:35:37.283Z,4.90
2024-01-12T05:38:04.583Z,4.90
2024-01-12T05:40:31.217Z,5.00
2024-01-12T05:42:57.950Z,5.00
2024-01-12T05:45:24.712Z,5.00
2024-01-12T05:47:51.480Z,4.90
2024-01-12T05:50:18.357Z,4.90
2024-01-12T05:52:45.038Z,4.90
2024-01-12T05:55:11.770Z,5.00
2024-01-12T05:57:38.434Z,5.00
2024-01-12T06:00:05.758Z,5.00
2024-01-12T06:02:32.785Z,5.10
2024-01-12T06:04:59.548Z,5.00
2024-01-12T06:07:26.225Z,5.10
2024-01-12T06:09:52.958Z,5.00
2024-01-12T06:12:19.710Z,5.10
2024-01-12T06:15:06.883Z,5.00
2024-01-12T06:17:33.802Z,5.00
2024-01-12T06:20:00.732Z,5.00
2024-01-12T06:22:27.813Z,5.00
2024-01-12T06:24:54.524Z,5.00
2024-01-12T06:27:21.205Z,4.90
2024-01-12T06:29:47.891Z,4.90
2024-01-12T06:32:14.601Z,4.90
2024-01-12T06:34:41.355Z,4.90
2024-01-12T06:37:08.000Z,5.00
2024-01-12T06:39:34.682Z,5.00
2024-01-12T06:42:01.967Z,5.00
2024-01-12T06:44:28.718Z,5.00
2024-01-12T06:46:55.920Z,4.90
2024-01-12T06:49:22.593Z,4.90
2024-01-12T06:51:49.352Z,4.90
2024-01-12T06:54:18.176Z,5.00
2024-01-12T06:56:44.999Z,5.00
2024-01-12T06:59:11.731Z,4.90
2024-01-12T07:01:38.947Z,5.00
2024-01-12T07:04:05.701Z,5.00
2024-01-12T07:06:32.531Z,5.00
2024-01-12T07:08:59.416Z,5.00
2024-01-12T07:11:26.218Z,4.90
2024-01-12T07:13:53.430Z,5.00
2024-01-12T07:16:20.174Z,4.90
2024-01-12T07:18:47.151Z,5.00
2024-01-12T07:21:14.207Z,5.00
2024-01-12T07:23:41.105Z,5.00
2024-01-12T07:26:07.799Z,5.00
2024-01-12T07:28:34.612Z,5.00
2024-01-12T07:31:01.393Z,5.00
2024-01-12T07:33:28.385Z,5.00
2024-01-12T07:35:55.616Z,5.00
2024-01-12T07:38:22.374Z,4.90
2024-01-12T07:40:49.081Z,5.00
2024-01-12T07:43:15.901Z,5.00
2024-01-12T07:45:42.634Z,5.10
2024-01-12T07:48:09.458Z,5.10
2024-01-12T07:50:36.377Z,5.10
2024-01-12T07:53:03.161Z,5.10
2024-01-12T07:55:29.900Z,5.10
2024-01-12T07:57:56.710Z,5.10
2024-01-12T08:00:23.437Z,5.10
2024-01-12T08:02:50.214Z,5.10
2024-01-12T08:05:17.116Z,5.10
2024-01-12T08:07:43.954Z,5.10
2024-01-12T08:10:10.615Z,5.10
2024-01-12T08:12:37.491Z,5.10
2024-01-12T08:15:04.269Z,5.10
2024-01-12T08:17:30.994Z,5.20
2024-01-12T08:19:57.714Z,5.10
2024-01-12T08:22:24.351Z,5.10
2024-01-12T08:24:51.013Z,5.10
2024-01-12T08:27:19.498Z,5.10
2024-01-12T08:29:46.532Z,5.10
2024-01-12T08:32:13.277Z,5.10
2024-01-12T08:34:41.065Z,5.10
2024-01-12T08:37:08.137Z,5.20
2024-01-12T08:39:34.977Z,5.10
2024-01-12T08:42:01.780Z,5.20
2024-01-12T08:44:28.481Z,5.20
2024-01-12T08:46:55.324Z,5.20
2024-01-12T08:49:22.413Z,5.20
2024-01-12T08:51:49.219Z,5.20
2024-01-12T08:54:15.823Z,5.20
2024-01-12T08:56:42.549Z,5.20
2024-01-12T08:59:09.468Z,5.20
2024-01-12T09:01:36.185Z,5.20
2024-01-12T09:04:03.215Z,5.20
2024-01-12T09:06:30.160Z,5.20
2024-01-12T09:08:57.171Z,5.20
2024-01-12T09:11:24.020Z,5.20
2024-01-12T09:13:50.763Z,5.20
2024-01-12T09:16:17.444Z,5.30
2024-01-12T09:18:44.408Z,5.20
2024-01-12T09:21:16.170Z,5.30
2024-01-12T09:23:43.614Z,5.30
2024-01-12T09:26:11.123Z,5.30
2024-01-12T09:28:37.784Z,5.30
2024-01-12T09:31:05.141Z,5.30
2024-01-12T09:33:32.021Z,5.30
2024-01-12T09:35:58.770Z,5.40
2024-01-12T09:38:25.608Z,5.40
2024-01-12T09:40:52.298Z,5.40
2024-01-12T09:43:19.037Z,5.40
2024-01-12T09:45:45.869Z,5.30
2024-01-12T09:48:12.669Z,5.40
2024-01-12T09:50:39.564Z,5.40
2024-01-12T09:53:06.258Z,5.40
2024-01-12T09:55:32.968Z,5.40
2024-01-12T09:57:59.667Z,5.40
2024-01-12T10:00:27.532Z,5.40
2024-01-12T10:02:54.278Z,5.50
2024-01-12T10:05:20.958Z,5.50
2024-01-12T10:07:47.774Z,5.50
2024-01-12T10:10:14.552Z,5.50
2024-01-12T10:12:41.255Z,5.50
2024-01-12T10:15:11.348Z,5.50
2024-01-12T10:17:38.287Z,5.50
2024-01-12T10:20:05.580Z,5.50
2024-01-12T10:22:32.391Z,5.50
2024-01-12T10:24:59.148Z,5.50
2024-01-12T10:27:25.911Z,5.40
2024-01-12T10:29:52.642Z,5.50
2024-01-12T10:32:19.486Z,5.50
2024-01-12T10:34:46.254Z,5.40
2024-01-12T10:37:13.630Z,5.50
2024-01-12T10:39:40.294Z,5.40
2024-01-12T10:42:07.176Z,5.40
2024-01-12T10:44:33.914Z,5.40
2024-01-12T10:47:00.619Z,5.50
2024-01-12T10:49:28.092Z,5.40
2024-01-12T10:51:55.277Z,5.50
2024-01-12T10:54:22.357Z,5.50
2024-01-12T10:56:50.060Z,5.60
2024-01-12T10:59:17.384Z,5.60
2024-01-12T11:01:44.541Z,5.60
2024-01-12T11:04:11.935Z,5.60
2024-01-12T11:06:39.281Z,5.60
2024-01-12T11:09:06.449Z,5.70
2024-01-12T11:11:33.575Z,5.70
2024-01-12T11:14:00.755Z,5.70
2024-01-12T11:16:27.669Z,5.70
2024-01-12T11:18:54.975Z,5.70
2024-01-12T11:21:22.434Z,5.70
2024-01-12T11:23:49.598Z,5.70
2024-01-12T11:26:16.776Z,5.70
2024-01-12T11:28:44.048Z,5.70
2024-01-12T11:31:11.476Z,5.70
2024-01-12T11:33:38.629Z,5.70
2024-01-12T11:36:06.884Z,5.70
2024-01-12T11:38:34.102Z,5.80
2024-01-12T11:41:01.259Z,5.80
2024-01-12T11:43:28.356Z,5.70
2024-01-12T11:45:55.629Z,5.70
2024-01-12T11:48:23.147Z,5.60
2024-01-12T11:50:50.495Z,5.60
2024-01-12T11:53:17.722Z,5.70
2024-01-12T11:55:44.994Z,5.70
2024-01-12T11:58:14.014Z,5.70
2024-01-12T12:00:41.157Z,5.70
2024-01-12T12:03:08.468Z,5.70
2024-01-12T12:05:36.192Z,5.70
2024-01-12T12:08:03.576Z,5.80
2024-01-12T12:10:37.791Z,5.80
2024-01-12T12:13:11.242Z,5.80
2024-01-12T12:15:38.455Z,5.90
2024-01-12T12:18:08.366Z,5.90
2024-01-12T12:20:36.181Z,5.90
2024-01-12T12:23:03.407Z,5.90
2024-01-12T12:25:30.509Z,5.90
2024-01-12T12:27:58.925Z,5.90
2024-01-12T12:30:26.672Z,5.90
2024-01-12T12:32:53.851Z,5.90
2024-01-12T12:35:21.774Z,6.00
2024-01-12T12:37:49.210Z,5.90
2024-01-12T12:40:16.528Z,5.90
2024-01-12T12:42:43.822Z,6.00
2024-01-12T12:45:14.182Z,6.00
2024-01-12T12:47:41.701Z,6.00
2024-01-12T12:50:12.417Z,6.00
2024-01-12T12:52:39.727Z,6.00
2024-01-12T12:55:06.891Z,5.90
2024-01-12T12:57:34.179Z,6.00
2024-01-12T13:00:01.536Z,6.00
2024-01-12T13:02:28.864Z,5.90
2024-01-12T13:04:56.200Z,6.00
2024-01-12T13:07:23.208Z,6.00
2024-01-12T13:09:50.944Z,6.00
2024-01-12T13:12:19.715Z,6.00
2024-01-12T13:14:46.899Z,6.00
2024-01-12T13:17:14.680Z,6.00
2024-01-12T13:19:42.147Z,5.90
2024-01-12T13:22:10.348Z,5.90
2024-01-12T13:24:38.005Z,5.90
2024-01-12T13:27:05.581Z,5.80
2024-01-12T13:29:33.457Z,5.80
2024-01-12T13:32:00.715Z,5.80
2024-01-12T13:34:30.218Z,5.80
2024-01-12T13:37:01.812Z,5.90
2024-01-12T13:39:29.106Z,5.80
2024-01-12T13:41:56.555Z,5.80
2024-01-12T13:44:23.710Z,5.80
2024-01-12T13:46:50.966Z,5.80
2024-01-12T13:49:18.249Z,5.80
2024-01-12T13:51:45.834Z,5.80
2024-01-12T13:54:14.859Z,5.80
2024-01-12T13:56:41.888Z,5.80
2024-01-12T13:59:08.658Z,5.80
2024-01-12T14:01:35.608Z,5.80
2024-01-12T14:04:02.332Z,5.80
2024-01-12T14:06:29.226Z,5.90
2024-01-12T14:08:56.001Z,5.80
2024-01-12T14:11:22.805Z,5.80
2024-01-12T14:13:49.631Z,5.80
2024-01-12T14:16:16.328Z,5.80
2024-01-12T14:18:43.269Z,5.80
2024-01-12T14:21:10.509Z,5.80
2024-01-12T14:23:37.292Z,5.80
2024-01-12T14:26:04.369Z,5.80
2024-01-12T14:28:33.428Z,5.80
2024-01-12T14:31:00.659Z,5.80
2024-01-12T14:33:28.264Z,5.80
2024-01-12T14:35:55.581Z,5.80
2024-01-12T14:38:22.588Z,5.90
2024-01-12T14:40:49.331Z,5.80
2024-01-12T14:43:16.109Z,5.80
2024-01-12T14:45:43.214Z,5.80
2024-01-12T14:48:12.532Z,5.80
2024-01-12T14:50:41.964Z,5.70
2024-01-12T14:53:08.881Z,5.70
2024-01-12T14:55:35.558Z,5.80
2024-01-12T14:58:02.209Z,5.70
2024-01-12T15:00:28.867Z,5.70
2024-01-12T15:02:55.613Z,5.70
2024-01-12T15:05:24.399Z,5.60
2024-01-12T15:07:51.360Z,5.60
2024-01-12T15:10:18.074Z,5.50
2024-01-12T15:12:44.799Z,5.60
2024-01-12T15:15:11.784Z,5.60
2024-01-12T15:17:38.864Z,5.60
2024-01-12T15:20:06.340Z,5.60
2024-01-12T15:22:33.432Z,5.60
2024-01-12T15:25:00.123Z,5.60
2024-01-12T15:27:26.813Z,5.50
2024-01-12T15:29:54.375Z,5.50
2024-01-12T15:32:21.265Z,5.50
2024-01-12T15:34:48.092Z,5.50
2024-01-12T15:37:14.879Z,5.50
2024-01-12T15:39:44.117Z,5.50
2024-01-12T15:42:10.873Z,5.40
2024-01-12T15:44:37.663Z,5.40
2024-01-12T15:47:04.430Z,5.40
2024-01-12T15:49:31.273Z,5.40
2024-01-12T15:51:58.041Z,5.40
2024-01-12T15:54:24.842Z,5.30
2024-01-12T15:56:52.035Z,5.30
2024-01-12T15:59:18.722Z,5.30
2024-01-12T16:01:46.490Z,5.30
2024-01-12T16:04:13.479Z,5.30
2024-01-12T16:06:40.498Z,5.30
2024-01-12T16:09:07.602Z,5.30
2024-01-12T16:11:34.484Z,5.30
2024-01-12T16:14:01.858Z,5.30
2024-01-12T16:16:28.566Z,5.30
2024-01-12T16:19:03.504Z,5.30
2024-01-12T16:21:35.597Z,5.30
2024-01-12T16:24:02.493Z,5.30
2024-01-12T16:26:29.582Z,5.20
2024-01-12T16:28:59.771Z,5.30
2024-01-12T16:31:26.453Z,5.30
2024-01-12T16:33:53.279Z,5.30
2024-01-12T16:36:20.118Z,5.20
2024-01-12T16:38:46.868Z,5.30
2024-01-12T16:41:13.614Z,5.20
2024-01-12T16:43:40.389Z,5.30
2024-01-12T16:46:07.074Z,5.30
2024-01-12T16:48:34.002Z,5.20
2024-01-12T16:51:03.838Z,5.20
2024-01-12T16:53:30.823Z,5.20
2024-01-12T16:55:57.676Z,5.20
2024-01-12T16:58:24.359Z,5.20
2024-01-12T17:00:51.135Z,5.20
2024-01-12T17:03:17.894Z,5.20
2024-01-12T17:05:45.207Z,5.20
2024-01-12T17:08:11.996Z,5.20
2024-01-12T17:10:38.696Z,5.20
2024-01-12T17:13:13.789Z,5.20
2024-01-12T17:15:41.757Z,5.20
2024-01-12T17:18:16.034Z,5.20
2024-01-12T17:20:48.754Z,5.20
2024-01-12T17:23:15.650Z,5.20
2024-01-12T17:25:42.345Z,5.20
2024-01-12T17:28:09.165Z,5.20
2024-01-12T17:30:43.480Z,5.20
2024-01-12T17:33:11.357Z,5.20
2024-01-12T17:35:38.337Z,5.20
2024-01-12T17:38:05.915Z,5.20
2024-01-12T17:40:32.606Z,5.20
2024-01-12T17:42:59.313Z,5.10
2024-01-12T17:45:28.031Z,5.10
2024-01-12T17:47:56.881Z,5.10
2024-01-12T17:50:24.050Z,5.10
2024-01-12T17:52:50.756Z,5.20
2024-01-12T17:55:17.471Z,5.20
2024-01-12T17:57:44.540Z,5.10
2024-01-12T18:00:11.396Z,5.10
2024-01-12T18:02:38.115Z,5.10
2024-01-12T18:05:05.246Z,5.10
2024-01-12T18:07:31.943Z,5.10
2024-01-12T18:09:58.907Z,5.10
2024-01-12T18:12:25.606Z,5.10
2024-01-12T18:14:52.383Z,5.10
2024-01-12T18:17:19.111Z,5.10
2024-01-12T18:19:45.926Z,5.10
2024-01-12T18:22:13.094Z,5.10
2024-01-12T18:24:40.149Z,5.10
2024-01-12T18:27:06.990Z,5.00
2024-01-12T18:29:33.716Z,5.10
2024-01-12T18:32:00.850Z,5.00
2024-01-12T18:34:27.797Z,5.00
2024-01-12T18:36:54.638Z,5.00
2024-01-12T18:39:21.370Z,5.00
2024-01-12T18:41:48.051Z,5.00
2024-01-12T18:44:14.968Z,5.10
2024-01-12T18:46:41.661Z,5.10
2024-01-12T18:49:08.611Z,5.00
2024-01-12T18:51:35.505Z,5.00
2024-01-12T18:54:02.203Z,5.00
2024-01-12T18:56:28.985Z,5.00
2024-01-12T18:58:55.696Z,5.00
2024-01-12T19:01:23.115Z,5.00
2024-01-12T19:03:49.891Z,5.00
2024-01-12T19:06:16.937Z,5.00
2024-01-12T19:08:43.759Z,5.00
2024-01-12T19:11:12.535Z,5.00
2024-01-12T19:13:40.679Z,5.00
2024-01-12T19:16:08.484Z,5.00
2024-01-12T19:18:35.271Z,5.00
2024-01-12T19:21:02.143Z,5.00
2024-01-12T19:23:28.844Z,5.00
2024-01-12T19:25:55.536Z,4.90
2024-01-12T19:28:22.259Z,5.00
2024-01-12T19:30:49.063Z,5.00
2024-01-12T19:33:15.868Z,5.00
2024-01-12T19:35:45.086Z,5.00
2024-01-12T19:38:13.294Z,4.90
2024-01-12T19:40:39.996Z,4.90
2024-01-12T19:43:06.704Z,5.00
2024-01-12T19:45:33.406Z,4.90
2024-01-12T19:48:00.237Z,4.90
2024-01-12T19:50:27.105Z,4.90
2024-01-12T19:52:55.263Z,4.90
2024-01-12T19:55:21.951Z,4.90
2024-01-12T19:57:48.692Z,4.90
2024-01-12T20:00:15.516Z,4.90
2024-01-12T20:02:42.567Z,4.90
2024-01-12T20:05:09.380Z,4.90
2024-01-12T20:07:36.210Z,4.80
2024-01-12T20:10:02.932Z,4.80
2024-01-12T20:12:34.219Z,4.80
2024-01-12T20:15:01.301Z,4.80
2024-01-12T20:17:28.331Z,4.80
2024-01-12T20:19:55.268Z,4.80
2024-01-12T20:22:21.990Z,4.70
2024-01-12T20:24:48.711Z,4.70
2024-01-12T20:27:15.504Z,4.80
2024-01-12T20:29:42.868Z,4.80
2024-01-12T20:32:09.581Z,4.70
2024-01-12T20:34:36.556Z,4.70
2024-01-12T20:37:04.021Z,4.80
2024-01-12T20:39:30.751Z,4.80
2024-01-12T20:41:57.550Z,4.80
2024-01-12T20:44:24.249Z,4.80
2024-01-12T20:46:50.959Z,4.80
2024-01-12T20:49:17.677Z,4.80
2024-01-12T20:51:44.331Z,4.80
2024-01-12T20:54:11.149Z,4.80
2024-01-12T20:56:37.943Z,4.70
2024-01-12T20:59:04.663Z,4.70
2024-01-12T21:01:32.503Z,4.70
2024-01-12T21:04:03.055Z,4.80
2024-01-12T21:06:30.021Z,4.70
2024-01-12T21:08:56.778Z,4.70
2024-01-12T21:11:23.488Z,4.70
2024-01-12T21:13:50.140Z,4.80
2024-01-12T21:16:16.838Z,4.60
2024-01-12T21:18:43.704Z,4.70
2024-01-12T21:21:10.767Z,4.60
2024-01-12T21:23:37.547Z,4.60
2024-01-12T21:26:04.261Z,4.60
2024-01-12T21:28:30.972Z,4.60
2024-01-12T21:30:57.732Z,4.60
2024-01-12T21:33:24.542Z,4.60
2024-01-12T21:35:51.745Z,4.60
2024-01-12T21:38:20.066Z,4.50
2024-01-12T21:40:46.944Z,4.60
2024-01-12T21:43:13.634Z,4.50
2024-01-12T21:45:40.324Z,4.50
2024-01-12T21:48:07.285Z,4.60
2024-01-12T21:50:34.606Z,4.60
2024-01-12T21:53:02.162Z,4.60
2024-01-12T21:55:30.953Z,4.50
2024-01-12T21:57:57.576Z,4.50
2024-01-12T22:00:24.326Z,4.50
2024-01-12T22:02:51.117Z,4.50
2024-01-12T22:05:17.856Z,4.50
2024-01-12T22:07:44.616Z,4.50
2024-01-12T22:10:11.300Z,4.50
2024-01-12T22:12:37.966Z,4.40
2024-01-12T22:15:06.988Z,4.40
2024-01-12T22:17:33.864Z,4.40
2024-01-12T22:20:00.581Z,4.40
2024-01-12T22:22:27.274Z,4.40
2024-01-12T22:24:53.956Z,4.40
2024-01-12T22:27:21.210Z,4.40
2024-01-12T22:29:48.005Z,4.40
2024-01-12T22:32:14.692Z,4.30
2024-01-12T22:34:41.449Z,4.30
2024-01-12T22:37:08.157Z,4.40
2024-01-12T22:39:34.870Z,4.40
2024-01-12T22:42:03.008Z,4.40
2024-01-12T22:44:31.195Z,4.30
2024-01-12T22:46:58.619Z,4.30
2024-01-12T22:49:25.522Z,4.20
2024-01-12T22:51:52.352Z,4.20
2024-01-12T22:54:19.110Z,4.20
2024-01-12T22:56:45.850Z,4.20
2024-01-12T22:59:12.824Z,4.20
2024-01-12T23:01:39.588Z,4.20
2024-01-12T23:04:06.277Z,4.20
2024-01-12T23:06:33.025Z,4.20
2024-01-12T23:08:59.808Z,4.10
2024-01-12T23:11:26.462Z,4.20
2024-01-12T23:13:53.201Z,4.10
2024-01-12T23:16:20.089Z,4.20
2024-01-12T23:18:46.983Z,4.20
2024-01-12T23:21:13.797Z,4.20
2024-01-12T23:23:40.585Z,4.10
2024-01-12T23:26:07.278Z,4.10
2024-01-12T23:28:33.996Z,4.10
2024-01-12T23:31:00.874Z,4.10
2024-01-12T23:33:27.861Z,4.20
2024-01-12T23:35:54.950Z,4.20
2024-01-12T23:38:31.459Z,4.20
2024-01-12T23:41:01.374Z,4.20
2024-01-12T23:43:28.073Z,4.20
2024-01-12T23:45:56.627Z,4.20
2024-01-12T23:48:31.061Z,4.20
2024-01-12T23:51:03.716Z,4.20
2024-01-12T23:53:30.585Z,4.20
2024-01-12T23:55:58.784Z,4.20
2024-01-12T23:58:30.414Z,4.20
